sensor_id;sensor_type;location;lat;lon;timestamp;P1;durP1;ratioP1;P2;durP2;ratioP2
49972;SDS011;71845;49.798;10.968;2024-01-30T00:00:05;5.15;;;3.22;;
49972;SDS011;71845;49.798;10.968;2024-01-30T00:02:35;6.25;;;2.92;;
49972;SDS011;71845;49.798;10.968;2024-01-30T00:05:03;4.68;;;2.60;;
49972;SDS011;71845;49.798;10.968;2024-01-30T00:07:30;6.40;;;3.22;;
49972;SDS011;71845;49.798;10.968;2024-01-30T00:10:01;7.60;;;3.30;;
49972;SDS011;71845;49.798;10.968;2024-01-30T00:12:32;5.82;;;2.75;;
49972;SDS011;71845;49.798;10.968;2024-01-30T00:15:02;6.55;;;2.80;;
49972;SDS011;71845;49.798;10.968;2024-01-30T00:17:38;4.78;;;2.50;;
49972;SDS011;71845;49.798;10.968;2024-01-30T00:20:10;5.85;;;3.17;;
49972;SDS011;71845;49.798;10.968;2024-01-30T00:22:38;6.57;;;3.30;;
49972;SDS011;71845;49.798;10.968;2024-01-30T00:25:08;7.93;;;3.17;;
49972;SDS011;71845;49.798;10.968;2024-01-30T00:27:38;6.40;;;2.88;;
49972;SDS011;71845;49.798;10.968;2024-01-30T00:30:06;5.97;;;2.72;;
49972;SDS011;71845;49.798;10.968;2024-01-30T00:32:35;7.57;;;3.45;;
49972;SDS011;71845;49.798;10.968;2024-01-30T00:35:03;8.85;;;4.55;;
49972;SDS011;71845;49.798;10.968;2024-01-30T00:37:32;10.52;;;5.30;;
49972;SDS011;71845;49.798;10.968;2024-01-30T00:40:01;8.13;;;4.60;;
49972;SDS011;71845;49.798;10.968;2024-01-30T00:42:29;10.25;;;4.50;;
49972;SDS011;71845;49.798;10.968;2024-01-30T00:45:05;8.57;;;4.15;;
49972;SDS011;71845;49.798;10.968;2024-01-30T00:47:36;9.02;;;4.13;;
49972;SDS011;71845;49.798;10.968;2024-01-30T00:50:13;9.63;;;4.32;;
49972;SDS011;71845;49.798;10.968;2024-01-30T00:52:42;8.77;;;3.80;;
49972;SDS011;71845;49.798;10.968;2024-01-30T00:55:11;9.40;;;3.92;;
49972;SDS011;71845;49.798;10.968;2024-01-30T00:57:41;10.13;;;4.50;;
49972;SDS011;71845;49.798;10.968;2024-01-30T01:00:15;8.27;;;4.10;;
49972;SDS011;71845;49.798;10.968;2024-01-30T01:02:44;9.48;;;4.40;;
49972;SDS011;71845;49.798;10.968;2024-01-30T01:05:12;10.60;;;5.88;;
49972;SDS011;71845;49.798;10.968;2024-01-30T01:07:43;10.05;;;5.53;;
49972;SDS011;71845;49.798;10.968;2024-01-30T01:10:14;12.35;;;6.00;;
49972;SDS011;71845;49.798;10.968;2024-01-30T01:12:43;12.98;;;6.60;;
49972;SDS011;71845;49.798;10.968;2024-01-30T01:15:14;13.02;;;6.40;;
49972;SDS011;71845;49.798;10.968;2024-01-30T01:17:45;15.50;;;6.95;;
49972;SDS011;71845;49.798;10.968;2024-01-30T01:20:16;14.98;;;6.63;;
49972;SDS011;71845;49.798;10.968;2024-01-30T01:22:43;12.00;;;7.28;;
49972;SDS011;71845;49.798;10.968;2024-01-30T01:25:13;12.48;;;5.90;;
49972;SDS011;71845;49.798;10.968;2024-01-30T01:27:40;13.40;;;6.25;;
49972;SDS011;71845;49.798;10.968;2024-01-30T01:30:24;12.80;;;7.28;;
49972;SDS011;71845;49.798;10.968;2024-01-30T01:32:52;13.57;;;7.38;;
49972;SDS011;71845;49.798;10.968;2024-01-30T01:35:23;14.77;;;6.78;;
49972;SDS011;71845;49.798;10.968;2024-01-30T01:37:51;13.50;;;6.85;;
49972;SDS011;71845;49.798;10.968;2024-01-30T01:40:22;10.60;;;6.10;;
49972;SDS011;71845;49.798;10.968;2024-01-30T01:42:51;12.18;;;5.65;;
49972;SDS011;71845;49.798;10.968;2024-01-30T01:45:28;11.88;;;6.68;;
49972;SDS011;71845;49.798;10.968;2024-01-30T01:47:58;13.10;;;5.85;;
49972;SDS011;71845;49.798;10.968;2024-01-30T01:50:36;8.80;;;5.38;;
49972;SDS011;71845;49.798;10.968;2024-01-30T01:53:07;12.48;;;5.45;;
49972;SDS011;71845;49.798;10.968;2024-01-30T01:55:38;10.77;;;4.75;;
49972;SDS011;71845;49.798;10.968;2024-01-30T01:58:09;9.25;;;5.07;;
49972;SDS011;71845;49.798;10.968;2024-01-30T02:00:46;9.30;;;4.45;;
49972;SDS011;71845;49.798;10.968;2024-01-30T02:03:16;7.93;;;4.22;;
49972;SDS011;71845;49.798;10.968;2024-01-30T02:05:47;10.85;;;4.55;;
49972;SDS011;71845;49.798;10.968;2024-01-30T02:08:14;9.45;;;4.35;;
49972;SDS011;71845;49.798;10.968;2024-01-30T02:10:43;6.35;;;3.60;;
49972;SDS011;71845;49.798;10.968;2024-01-30T02:13:13;7.05;;;3.50;;
49972;SDS011;71845;49.798;10.968;2024-01-30T02:15:45;10.05;;;3.92;;
49972;SDS011;71845;49.798;10.968;2024-01-30T02:18:19;9.80;;;4.38;;
49972;SDS011;71845;49.798;10.968;2024-01-30T02:20:47;9.95;;;4.28;;
49972;SDS011;71845;49.798;10.968;2024-01-30T02:23:21;9.52;;;4.47;;
49972;SDS011;71845;49.798;10.968;2024-01-30T02:25:53;10.57;;;4.03;;
49972;SDS011;71845;49.798;10.968;2024-01-30T02:28:21;8.10;;;4.07;;
49972;SDS011;71845;49.798;10.968;2024-01-30T02:31:02;10.18;;;4.75;;
49972;SDS011;71845;49.798;10.968;2024-01-30T02:33:32;8.50;;;4.35;;
49972;SDS011;71845;49.798;10.968;2024-01-30T02:36:02;10.93;;;4.47;;
49972;SDS011;71845;49.798;10.968;2024-01-30T02:38:36;8.27;;;3.33;;
49972;SDS011;71845;49.798;10.968;2024-01-30T02:41:05;7.97;;;3.90;;
49972;SDS011;71845;49.798;10.968;2024-01-30T02:43:40;7.30;;;3.70;;
49972;SDS011;71845;49.798;10.968;2024-01-30T02:46:08;6.95;;;3.50;;
49972;SDS011;71845;49.798;10.968;2024-01-30T02:48:36;8.80;;;3.55;;
49972;SDS011;71845;49.798;10.968;2024-01-30T02:51:05;6.93;;;3.10;;
49972;SDS011;71845;49.798;10.968;2024-01-30T02:53:44;11.15;;;3.55;;
49972;SDS011;71845;49.798;10.968;2024-01-30T02:56:11;8.30;;;3.78;;
49972;SDS011;71845;49.798;10.968;2024-01-30T02:58:40;9.05;;;4.47;;
49972;SDS011;71845;49.798;10.968;2024-01-30T03:01:10;8.23;;;4.13;;
49972;SDS011;71845;49.798;10.968;2024-01-30T03:03:40;8.02;;;3.95;;
49972;SDS011;71845;49.798;10.968;2024-01-30T03:06:11;8.75;;;4.05;;
49972;SDS011;71845;49.798;10.968;2024-01-30T03:08:55;7.45;;;3.63;;
49972;SDS011;71845;49.798;10.968;2024-01-30T03:11:31;9.88;;;3.95;;
49972;SDS011;71845;49.798;10.968;2024-01-30T03:13:59;7.75;;;3.60;;
49972;SDS011;71845;49.798;10.968;2024-01-30T03:16:27;9.23;;;4.00;;
49972;SDS011;71845;49.798;10.968;2024-01-30T03:18:58;6.70;;;4.25;;
49972;SDS011;71845;49.798;10.968;2024-01-30T03:21:30;7.15;;;4.20;;
49972;SDS011;71845;49.798;10.968;2024-01-30T03:24:01;6.63;;;3.78;;
49972;SDS011;71845;49.798;10.968;2024-01-30T03:26:29;8.02;;;4.05;;
49972;SDS011;71845;49.798;10.968;2024-01-30T03:29:05;7.68;;;4.13;;
49972;SDS011;71845;49.798;10.968;2024-01-30T03:31:35;8.90;;;4.57;;
49972;SDS011;71845;49.798;10.968;2024-01-30T03:34:06;10.48;;;4.75;;
49972;SDS011;71845;49.798;10.968;2024-01-30T03:36:33;10.80;;;4.80;;
49972;SDS011;71845;49.798;10.968;2024-01-30T03:39:05;7.40;;;5.30;;
49972;SDS011;71845;49.798;10.968;2024-01-30T03:41:42;10.55;;;5.07;;
49972;SDS011;71845;49.798;10.968;2024-01-30T03:44:23;10.00;;;5.28;;
49972;SDS011;71845;49.798;10.968;2024-01-30T03:46:52;11.38;;;5.40;;
49972;SDS011;71845;49.798;10.968;2024-01-30T03:49:20;11.90;;;5.05;;
49972;SDS011;71845;49.798;10.968;2024-01-30T03:51:47;12.10;;;5.35;;
49972;SDS011;71845;49.798;10.968;2024-01-30T03:54:28;8.02;;;4.55;;
49972;SDS011;71845;49.798;10.968;2024-01-30T03:56:58;10.35;;;5.18;;
49972;SDS011;71845;49.798;10.968;2024-01-30T03:59:28;10.55;;;5.03;;
49972;SDS011;71845;49.798;10.968;2024-01-30T04:01:58;8.70;;;5.10;;
49972;SDS011;71845;49.798;10.968;2024-01-30T04:04:28;11.80;;;4.82;;
49972;SDS011;71845;49.798;10.968;2024-01-30T04:06:58;8.57;;;5.22;;
49972;SDS011;71845;49.798;10.968;2024-01-30T04:09:39;10.20;;;4.85;;
49972;SDS011;71845;49.798;10.968;2024-01-30T04:12:08;9.32;;;4.47;;
49972;SDS011;71845;49.798;10.968;2024-01-30T04:14:39;8.35;;;4.35;;
49972;SDS011;71845;49.798;10.968;2024-01-30T04:17:09;9.70;;;4.80;;
49972;SDS011;71845;49.798;10.968;2024-01-30T04:19:37;10.52;;;4.93;;
49972;SDS011;71845;49.798;10.968;2024-01-30T04:22:13;10.10;;;4.90;;
49972;SDS011;71845;49.798;10.968;2024-01-30T04:24:46;7.57;;;4.60;;
49972;SDS011;71845;49.798;10.968;2024-01-30T04:27:15;11.20;;;4.47;;
49972;SDS011;71845;49.798;10.968;2024-01-30T04:29:46;10.02;;;4.88;;
49972;SDS011;71845;49.798;10.968;2024-01-30T04:32:16;10.40;;;3.97;;
49972;SDS011;71845;49.798;10.968;2024-01-30T04:34:44;11.13;;;4.43;;
49972;SDS011;71845;49.798;10.968;2024-01-30T04:37:13;8.90;;;4.13;;
49972;SDS011;71845;49.798;10.968;2024-01-30T04:39:44;8.35;;;4.60;;
49972;SDS011;71845;49.798;10.968;2024-01-30T04:42:11;12.77;;;4.75;;
49972;SDS011;71845;49.798;10.968;2024-01-30T04:44:41;6.55;;;4.32;;
49972;SDS011;71845;49.798;10.968;2024-01-30T04:47:09;8.57;;;4.40;;
49972;SDS011;71845;49.798;10.968;2024-01-30T04:49:39;8.07;;;4.20;;
49972;SDS011;71845;49.798;10.968;2024-01-30T04:52:09;10.20;;;4.20;;
49972;SDS011;71845;49.798;10.968;2024-01-30T04:54:38;9.88;;;4.43;;
49972;SDS011;71845;49.798;10.968;2024-01-30T04:57:22;7.78;;;3.67;;
49972;SDS011;71845;49.798;10.968;2024-01-30T04:59:52;10.75;;;3.95;;
49972;SDS011;71845;49.798;10.968;2024-01-30T05:02:22;9.18;;;3.65;;
49972;SDS011;71845;49.798;10.968;2024-01-30T05:04:52;10.07;;;3.50;;
49972;SDS011;71845;49.798;10.968;2024-01-30T05:07:24;7.13;;;3.03;;
49972;SDS011;71845;49.798;10.968;2024-01-30T05:09:52;7.72;;;3.42;;
49972;SDS011;71845;49.798;10.968;2024-01-30T05:12:33;8.43;;;3.65;;
49972;SDS011;71845;49.798;10.968;2024-01-30T05:15:04;10.43;;;3.70;;
49972;SDS011;71845;49.798;10.968;2024-01-30T05:17:47;8.48;;;3.65;;
49972;SDS011;71845;49.798;10.968;2024-01-30T05:20:15;6.40;;;3.60;;
49972;SDS011;71845;49.798;10.968;2024-01-30T05:22:46;7.85;;;3.60;;
49972;SDS011;71845;49.798;10.968;2024-01-30T05:25:16;6.78;;;3.25;;
49972;SDS011;71845;49.798;10.968;2024-01-30T05:27:53;7.60;;;3.58;;
49972;SDS011;71845;49.798;10.968;2024-01-30T05:30:23;7.15;;;3.50;;
49972;SDS011;71845;49.798;10.968;2024-01-30T05:32:53;6.43;;;3.38;;
49972;SDS011;71845;49.798;10.968;2024-01-30T05:35:21;6.45;;;3.45;;
49972;SDS011;71845;49.798;10.968;2024-01-30T05:37:49;6.57;;;2.78;;
49972;SDS011;71845;49.798;10.968;2024-01-30T05:40:19;7.82;;;3.72;;
49972;SDS011;71845;49.798;10.968;2024-01-30T05:42:49;8.23;;;3.05;;
49972;SDS011;71845;49.798;10.968;2024-01-30T05:45:31;7.43;;;3.28;;
49972;SDS011;71845;49.798;10.968;2024-01-30T05:48:01;8.43;;;3.17;;
49972;SDS011;71845;49.798;10.968;2024-01-30T05:50:31;9.45;;;3.90;;
49972;SDS011;71845;49.798;10.968;2024-01-30T05:53:01;7.88;;;3.33;;
49972;SDS011;71845;49.798;10.968;2024-01-30T05:55:31;8.93;;;3.97;;
49972;SDS011;71845;49.798;10.968;2024-01-30T05:58:02;8.73;;;3.78;;
49972;SDS011;71845;49.798;10.968;2024-01-30T06:00:47;3.85;;;1.60;;
49972;SDS011;71845;49.798;10.968;2024-01-30T06:03:17;10.85;;;3.70;;
49972;SDS011;71845;49.798;10.968;2024-01-30T06:05:48;6.03;;;3.33;;
49972;SDS011;71845;49.798;10.968;2024-01-30T06:08:17;8.38;;;3.63;;
49972;SDS011;71845;49.798;10.968;2024-01-30T06:10:45;12.77;;;5.32;;
49972;SDS011;71845;49.798;10.968;2024-01-30T06:13:15;8.23;;;3.88;;
49972;SDS011;71845;49.798;10.968;2024-01-30T06:15:46;7.30;;;3.67;;
49972;SDS011;71845;49.798;10.968;2024-01-30T06:18:16;8.07;;;3.83;;
49972;SDS011;71845;49.798;10.968;2024-01-30T06:20:46;8.80;;;3.75;;
49972;SDS011;71845;49.798;10.968;2024-01-30T06:23:17;8.40;;;3.40;;
49972;SDS011;71845;49.798;10.968;2024-01-30T06:25:46;10.02;;;4.10;;
49972;SDS011;71845;49.798;10.968;2024-01-30T06:28:14;7.78;;;3.55;;
49972;SDS011;71845;49.798;10.968;2024-01-30T06:30:43;9.70;;;3.90;;
49972;SDS011;71845;49.798;10.968;2024-01-30T06:33:18;8.82;;;4.05;;
49972;SDS011;71845;49.798;10.968;2024-01-30T06:35:46;9.95;;;3.95;;
49972;SDS011;71845;49.798;10.968;2024-01-30T06:38:14;8.52;;;3.95;;
49972;SDS011;71845;49.798;10.968;2024-01-30T06:40:51;9.57;;;4.28;;
49972;SDS011;71845;49.798;10.968;2024-01-30T06:43:21;9.38;;;4.63;;
49972;SDS011;71845;49.798;10.968;2024-01-30T06:46:01;10.05;;;4.95;;
49972;SDS011;71845;49.798;10.968;2024-01-30T06:48:31;10.48;;;5.28;;
49972;SDS011;71845;49.798;10.968;2024-01-30T06:51:13;7.60;;;4.13;;
49972;SDS011;71845;49.798;10.968;2024-01-30T06:53:56;10.43;;;4.75;;
49972;SDS011;71845;49.798;10.968;2024-01-30T06:56:27;8.50;;;4.20;;
49972;SDS011;71845;49.798;10.968;2024-01-30T06:58:55;9.15;;;4.22;;
49972;SDS011;71845;49.798;10.968;2024-01-30T07:01:28;9.15;;;4.38;;
49972;SDS011;71845;49.798;10.968;2024-01-30T07:03:57;10.82;;;4.60;;
49972;SDS011;71845;49.798;10.968;2024-01-30T07:06:26;7.80;;;3.42;;
49972;SDS011;71845;49.798;10.968;2024-01-30T07:08:54;8.63;;;4.00;;
49972;SDS011;71845;49.798;10.968;2024-01-30T07:11:24;8.93;;;3.90;;
49972;SDS011;71845;49.798;10.968;2024-01-30T07:13:55;9.25;;;3.85;;
49972;SDS011;71845;49.798;10.968;2024-01-30T07:16:22;8.25;;;4.30;;
49972;SDS011;71845;49.798;10.968;2024-01-30T07:18:57;8.25;;;3.95;;
49972;SDS011;71845;49.798;10.968;2024-01-30T07:21:26;9.95;;;4.18;;
49972;SDS011;71845;49.798;10.968;2024-01-30T07:23:57;8.93;;;4.05;;
49972;SDS011;71845;49.798;10.968;2024-01-30T07:26:31;8.32;;;4.28;;
49972;SDS011;71845;49.798;10.968;2024-01-30T07:29:02;8.20;;;4.20;;
49972;SDS011;71845;49.798;10.968;2024-01-30T07:31:32;6.22;;;3.97;;
49972;SDS011;71845;49.798;10.968;2024-01-30T07:34:04;10.05;;;4.00;;
49972;SDS011;71845;49.798;10.968;2024-01-30T07:36:32;9.23;;;4.18;;
49972;SDS011;71845;49.798;10.968;2024-01-30T07:38:59;8.90;;;4.20;;
49972;SDS011;71845;49.798;10.968;2024-01-30T07:41:29;7.40;;;4.03;;
49972;SDS011;71845;49.798;10.968;2024-01-30T07:43:58;10.38;;;4.47;;
49972;SDS011;71845;49.798;10.968;2024-01-30T07:46:28;8.00;;;4.20;;
49972;SDS011;71845;49.798;10.968;2024-01-30T07:48:58;6.80;;;3.95;;
49972;SDS011;71845;49.798;10.968;2024-01-30T07:51:31;11.77;;;4.25;;
49972;SDS011;71845;49.798;10.968;2024-01-30T07:53:59;13.55;;;4.78;;
49972;SDS011;71845;49.798;10.968;2024-01-30T07:56:28;8.52;;;3.85;;
49972;SDS011;71845;49.798;10.968;2024-01-30T07:58:56;8.85;;;4.28;;
49972;SDS011;71845;49.798;10.968;2024-01-30T08:01:23;7.95;;;4.28;;
49972;SDS011;71845;49.798;10.968;2024-01-30T08:03:54;10.02;;;4.50;;
49972;SDS011;71845;49.798;10.968;2024-01-30T08:06:23;8.77;;;4.10;;
49972;SDS011;71845;49.798;10.968;2024-01-30T08:09:03;10.23;;;5.45;;
49972;SDS011;71845;49.798;10.968;2024-01-30T08:11:33;9.90;;;4.70;;
49972;SDS011;71845;49.798;10.968;2024-01-30T08:14:01;10.23;;;5.32;;
49972;SDS011;71845;49.798;10.968;2024-01-30T08:16:32;8.48;;;4.90;;
49972;SDS011;71845;49.798;10.968;2024-01-30T08:19:01;9.82;;;5.03;;
49972;SDS011;71845;49.798;10.968;2024-01-30T08:21:31;9.65;;;4.25;;
49972;SDS011;71845;49.798;10.968;2024-01-30T08:24:16;8.98;;;5.30;;
49972;SDS011;71845;49.798;10.968;2024-01-30T08:26:45;12.05;;;5.15;;
49972;SDS011;71845;49.798;10.968;2024-01-30T08:29:16;8.63;;;4.43;;
49972;SDS011;71845;49.798;10.968;2024-01-30T08:31:47;11.18;;;5.00;;
49972;SDS011;71845;49.798;10.968;2024-01-30T08:34:16;11.30;;;5.07;;
49972;SDS011;71845;49.798;10.968;2024-01-30T08:36:44;10.60;;;5.10;;
49972;SDS011;71845;49.798;10.968;2024-01-30T08:39:28;12.25;;;5.30;;
49972;SDS011;71845;49.798;10.968;2024-01-30T08:41:55;9.15;;;5.07;;
49972;SDS011;71845;49.798;10.968;2024-01-30T08:44:27;9.38;;;5.15;;
49972;SDS011;71845;49.798;10.968;2024-01-30T08:46:57;9.13;;;5.78;;
49972;SDS011;71845;49.798;10.968;2024-01-30T08:49:28;11.35;;;5.95;;
49972;SDS011;71845;49.798;10.968;2024-01-30T08:51:56;9.98;;;5.13;;
49972;SDS011;71845;49.798;10.968;2024-01-30T08:57:18;11.52;;;5.75;;
49972;SDS011;71845;49.798;10.968;2024-01-30T08:59:48;10.20;;;5.63;;
49972;SDS011;71845;49.798;10.968;2024-01-30T09:02:16;9.85;;;5.43;;
49972;SDS011;71845;49.798;10.968;2024-01-30T09:04:46;9.60;;;5.28;;
49972;SDS011;71845;49.798;10.968;2024-01-30T09:07:16;12.95;;;5.45;;
49972;SDS011;71845;49.798;10.968;2024-01-30T09:09:58;11.63;;;5.38;;
49972;SDS011;71845;49.798;10.968;2024-01-30T09:12:26;13.50;;;5.82;;
49972;SDS011;71845;49.798;10.968;2024-01-30T09:14:55;11.80;;;6.10;;
49972;SDS011;71845;49.798;10.968;2024-01-30T09:17:26;12.05;;;5.95;;
49972;SDS011;71845;49.798;10.968;2024-01-30T09:19:57;10.63;;;6.03;;
49972;SDS011;71845;49.798;10.968;2024-01-30T09:22:27;14.15;;;6.30;;
49972;SDS011;71845;49.798;10.968;2024-01-30T09:25:01;11.23;;;5.65;;
49972;SDS011;71845;49.798;10.968;2024-01-30T09:27:29;13.95;;;6.45;;
49972;SDS011;71845;49.798;10.968;2024-01-30T09:29:57;14.23;;;6.75;;
49972;SDS011;71845;49.798;10.968;2024-01-30T09:32:27;13.25;;;6.32;;
49972;SDS011;71845;49.798;10.968;2024-01-30T09:34:55;10.65;;;6.32;;
49972;SDS011;71845;49.798;10.968;2024-01-30T09:37:24;11.45;;;6.40;;
49972;SDS011;71845;49.798;10.968;2024-01-30T09:39:55;14.35;;;6.43;;
49972;SDS011;71845;49.798;10.968;2024-01-30T09:42:34;11.75;;;6.63;;
49972;SDS011;71845;49.798;10.968;2024-01-30T09:45:04;12.40;;;6.38;;
49972;SDS011;71845;49.798;10.968;2024-01-30T09:47:38;11.32;;;6.05;;
49972;SDS011;71845;49.798;10.968;2024-01-30T09:50:12;12.23;;;6.63;;
49972;SDS011;71845;49.798;10.968;2024-01-30T09:52:43;9.68;;;6.57;;
49972;SDS011;71845;49.798;10.968;2024-01-30T09:55:22;12.73;;;6.05;;
49972;SDS011;71845;49.798;10.968;2024-01-30T09:57:53;12.38;;;6.50;;
49972;SDS011;71845;49.798;10.968;2024-01-30T10:00:23;9.48;;;5.90;;
49972;SDS011;71845;49.798;10.968;2024-01-30T10:02:54;10.60;;;5.93;;
49972;SDS011;71845;49.798;10.968;2024-01-30T10:05:25;11.43;;;6.53;;
49972;SDS011;71845;49.798;10.968;2024-01-30T10:07:56;13.10;;;7.20;;
49972;SDS011;71845;49.798;10.968;2024-01-30T10:10:39;11.80;;;6.70;;
49972;SDS011;71845;49.798;10.968;2024-01-30T10:13:10;12.13;;;6.25;;
49972;SDS011;71845;49.798;10.968;2024-01-30T10:15:41;12.18;;;6.80;;
49972;SDS011;71845;49.798;10.968;2024-01-30T10:18:09;11.13;;;5.90;;
49972;SDS011;71845;49.798;10.968;2024-01-30T10:20:46;11.77;;;7.25;;
49972;SDS011;71845;49.798;10.968;2024-01-30T10:23:14;13.18;;;6.68;;
49972;SDS011;71845;49.798;10.968;2024-01-30T10:25:59;11.60;;;6.78;;
49972;SDS011;71845;49.798;10.968;2024-01-30T10:28:27;11.60;;;6.35;;
49972;SDS011;71845;49.798;10.968;2024-01-30T10:31:05;10.50;;;6.80;;
49972;SDS011;71845;49.798;10.968;2024-01-30T10:33:36;11.27;;;7.07;;
49972;SDS011;71845;49.798;10.968;2024-01-30T10:36:13;8.63;;;6.00;;
49972;SDS011;71845;49.798;10.968;2024-01-30T10:38:44;11.07;;;6.97;;
49972;SDS011;71845;49.798;10.968;2024-01-30T10:41:22;12.05;;;6.53;;
49972;SDS011;71845;49.798;10.968;2024-01-30T10:43:58;10.43;;;6.05;;
49972;SDS011;71845;49.798;10.968;2024-01-30T10:46:33;12.65;;;6.45;;
49972;SDS011;71845;49.798;10.968;2024-01-30T10:49:08;13.10;;;7.38;;
49972;SDS011;71845;49.798;10.968;2024-01-30T10:51:37;13.50;;;7.20;;
49972;SDS011;71845;49.798;10.968;2024-01-30T10:54:07;14.70;;;7.18;;
49972;SDS011;71845;49.798;10.968;2024-01-30T10:56:43;13.48;;;6.72;;
49972;SDS011;71845;49.798;10.968;2024-01-30T10:59:14;13.43;;;6.93;;
49972;SDS011;71845;49.798;10.968;2024-01-30T11:01:41;10.98;;;6.65;;
49972;SDS011;71845;49.798;10.968;2024-01-30T11:04:09;15.57;;;7.47;;
49972;SDS011;71845;49.798;10.968;2024-01-30T11:06:41;11.88;;;6.70;;
49972;SDS011;71845;49.798;10.968;2024-01-30T11:09:17;11.90;;;7.10;;
49972;SDS011;71845;49.798;10.968;2024-01-30T11:11:52;13.18;;;7.20;;
49972;SDS011;71845;49.798;10.968;2024-01-30T11:14:28;11.85;;;6.82;;
49972;SDS011;71845;49.798;10.968;2024-01-30T11:17:07;11.05;;;6.13;;
49972;SDS011;71845;49.798;10.968;2024-01-30T11:19:41;10.75;;;6.30;;
49972;SDS011;71845;49.798;10.968;2024-01-30T11:22:19;10.30;;;6.78;;
49972;SDS011;71845;49.798;10.968;2024-01-30T11:24:50;13.20;;;6.13;;
49972;SDS011;71845;49.798;10.968;2024-01-30T11:27:23;11.25;;;6.72;;
49972;SDS011;71845;49.798;10.968;2024-01-30T11:30:01;10.75;;;7.18;;
49972;SDS011;71845;49.798;10.968;2024-01-30T11:32:32;9.82;;;6.82;;
49972;SDS011;71845;49.798;10.968;2024-01-30T11:35:04;13.00;;;7.40;;
49972;SDS011;71845;49.798;10.968;2024-01-30T11:37:36;13.57;;;6.50;;
49972;SDS011;71845;49.798;10.968;2024-01-30T11:40:06;12.15;;;7.13;;
49972;SDS011;71845;49.798;10.968;2024-01-30T11:42:55;10.50;;;5.40;;
49972;SDS011;71845;49.798;10.968;2024-01-30T11:45:25;12.35;;;7.15;;
49972;SDS011;71845;49.798;10.968;2024-01-30T11:47:56;12.77;;;7.10;;
49972;SDS011;71845;49.798;10.968;2024-01-30T11:50:27;16.08;;;8.20;;
49972;SDS011;71845;49.798;10.968;2024-01-30T11:52:58;13.13;;;7.78;;
49972;SDS011;71845;49.798;10.968;2024-01-30T11:55:34;12.88;;;7.68;;
49972;SDS011;71845;49.798;10.968;2024-01-30T11:58:15;16.30;;;7.63;;
49972;SDS011;71845;49.798;10.968;2024-01-30T12:00:52;19.67;;;9.20;;
49972;SDS011;71845;49.798;10.968;2024-01-30T12:03:23;13.15;;;7.28;;
49972;SDS011;71845;49.798;10.968;2024-01-30T12:05:55;14.25;;;7.80;;
49972;SDS011;71845;49.798;10.968;2024-01-30T12:08:27;14.00;;;6.93;;
49972;SDS011;71845;49.798;10.968;2024-01-30T12:10:57;12.32;;;7.13;;
49972;SDS011;71845;49.798;10.968;2024-01-30T12:13:30;12.35;;;6.63;;
49972;SDS011;71845;49.798;10.968;2024-01-30T12:15:57;12.65;;;6.97;;
49972;SDS011;71845;49.798;10.968;2024-01-30T12:18:26;12.63;;;7.65;;
49972;SDS011;71845;49.798;10.968;2024-01-30T12:21:00;12.75;;;7.22;;
49972;SDS011;71845;49.798;10.968;2024-01-30T12:23:30;13.15;;;6.80;;
49972;SDS011;71845;49.798;10.968;2024-01-30T12:26:00;13.82;;;7.28;;
49972;SDS011;71845;49.798;10.968;2024-01-30T12:28:46;10.43;;;6.55;;
49972;SDS011;71845;49.798;10.968;2024-01-30T12:31:17;9.63;;;6.72;;
49972;SDS011;71845;49.798;10.968;2024-01-30T12:33:49;14.55;;;7.43;;
49972;SDS011;71845;49.798;10.968;2024-01-30T12:36:16;11.10;;;6.85;;
49972;SDS011;71845;49.798;10.968;2024-01-30T12:38:47;11.95;;;7.47;;
49972;SDS011;71845;49.798;10.968;2024-01-30T12:41:17;15.43;;;8.10;;
49972;SDS011;71845;49.798;10.968;2024-01-30T12:43:47;11.30;;;7.45;;
49972;SDS011;71845;49.798;10.968;2024-01-30T12:46:16;12.65;;;7.10;;
49972;SDS011;71845;49.798;10.968;2024-01-30T12:48:46;13.25;;;7.15;;
49972;SDS011;71845;49.798;10.968;2024-01-30T12:51:16;15.45;;;8.23;;
49972;SDS011;71845;49.798;10.968;2024-01-30T12:53:44;16.33;;;7.32;;
49972;SDS011;71845;49.798;10.968;2024-01-30T12:56:13;13.02;;;7.00;;
49972;SDS011;71845;49.798;10.968;2024-01-30T12:58:42;13.00;;;6.68;;
49972;SDS011;71845;49.798;10.968;2024-01-30T13:01:13;14.10;;;7.30;;
49972;SDS011;71845;49.798;10.968;2024-01-30T13:03:42;12.73;;;7.22;;
49972;SDS011;71845;49.798;10.968;2024-01-30T13:06:12;12.00;;;7.43;;
49972;SDS011;71845;49.798;10.968;2024-01-30T13:08:42;11.48;;;6.93;;
49972;SDS011;71845;49.798;10.968;2024-01-30T13:11:14;11.52;;;6.88;;
49972;SDS011;71845;49.798;10.968;2024-01-30T13:13:43;13.25;;;7.03;;
49972;SDS011;71845;49.798;10.968;2024-01-30T13:16:25;12.57;;;7.90;;
49972;SDS011;71845;49.798;10.968;2024-01-30T13:18:54;13.77;;;7.35;;
49972;SDS011;71845;49.798;10.968;2024-01-30T13:21:24;6.20;;;3.45;;
49972;SDS011;71845;49.798;10.968;2024-01-30T13:23:54;8.88;;;5.20;;
49972;SDS011;71845;49.798;10.968;2024-01-30T13:26:25;13.13;;;5.38;;
49972;SDS011;71845;49.798;10.968;2024-01-30T13:28:57;12.70;;;7.22;;
49972;SDS011;71845;49.798;10.968;2024-01-30T13:31:39;11.57;;;6.82;;
49972;SDS011;71845;49.798;10.968;2024-01-30T13:34:10;14.25;;;7.78;;
49972;SDS011;71845;49.798;10.968;2024-01-30T13:36:39;11.82;;;7.45;;
49972;SDS011;71845;49.798;10.968;2024-01-30T13:39:07;12.52;;;7.15;;
49972;SDS011;71845;49.798;10.968;2024-01-30T13:41:40;11.25;;;7.15;;
49972;SDS011;71845;49.798;10.968;2024-01-30T13:44:09;12.98;;;7.13;;
49972;SDS011;71845;49.798;10.968;2024-01-30T13:46:42;11.52;;;7.35;;
49972;SDS011;71845;49.798;10.968;2024-01-30T13:49:13;16.10;;;8.45;;
49972;SDS011;71845;49.798;10.968;2024-01-30T13:51:43;13.13;;;7.43;;
49972;SDS011;71845;49.798;10.968;2024-01-30T13:54:11;11.52;;;7.80;;
49972;SDS011;71845;49.798;10.968;2024-01-30T13:56:42;16.35;;;9.00;;
49972;SDS011;71845;49.798;10.968;2024-01-30T13:59:24;13.60;;;8.38;;
49972;SDS011;71845;49.798;10.968;2024-01-30T14:01:57;18.00;;;8.50;;
49972;SDS011;71845;49.798;10.968;2024-01-30T14:04:35;11.85;;;8.18;;
49972;SDS011;71845;49.798;10.968;2024-01-30T14:07:03;17.10;;;9.10;;
49972;SDS011;71845;49.798;10.968;2024-01-30T14:09:33;14.15;;;7.60;;
49972;SDS011;71845;49.798;10.968;2024-01-30T14:12:04;13.65;;;8.20;;
49972;SDS011;71845;49.798;10.968;2024-01-30T14:14:32;13.85;;;7.53;;
49972;SDS011;71845;49.798;10.968;2024-01-30T14:17:07;12.05;;;7.25;;
49972;SDS011;71845;49.798;10.968;2024-01-30T14:19:35;11.85;;;7.60;;
49972;SDS011;71845;49.798;10.968;2024-01-30T14:22:05;11.65;;;6.88;;
49972;SDS011;71845;49.798;10.968;2024-01-30T14:24:36;13.45;;;7.38;;
49972;SDS011;71845;49.798;10.968;2024-01-30T14:27:04;12.38;;;7.13;;
49972;SDS011;71845;49.798;10.968;2024-01-30T14:29:34;10.40;;;6.43;;
49972;SDS011;71845;49.798;10.968;2024-01-30T14:34:52;9.98;;;6.68;;
49972;SDS011;71845;49.798;10.968;2024-01-30T14:37:22;12.32;;;7.20;;
49972;SDS011;71845;49.798;10.968;2024-01-30T14:39:49;13.57;;;7.50;;
49972;SDS011;71845;49.798;10.968;2024-01-30T14:42:20;12.20;;;7.53;;
49972;SDS011;71845;49.798;10.968;2024-01-30T14:44:53;11.93;;;6.68;;
49972;SDS011;71845;49.798;10.968;2024-01-30T14:50:07;12.93;;;6.78;;
49972;SDS011;71845;49.798;10.968;2024-01-30T14:52:37;15.23;;;7.68;;
49972;SDS011;71845;49.798;10.968;2024-01-30T14:55:06;13.23;;;7.10;;
49972;SDS011;71845;49.798;10.968;2024-01-30T14:57:35;14.75;;;6.85;;